Time;durP1;ratioP1;P1;durP2;ratioP2;P2;SDS_P1;SDS_P2;PMS_P1;PMS_P2;Temp;Humidity;BMP_temperature;BMP_pressure;BME280_temperature;BME280_humidity;BME280_pressure;Samples;Min_cycle;Max_cycle;Signal;HPM_P1;HPM_P2
2022/08/13 00:01:56;;;;;;;;;6.00;6.00;;;;;29.95;20.55;100531.91;5076534;27;45675;-79
2022/08/13 00:04:22;;;;;;;;;6.25;5.50;;;;;29.90;21.25;100524.53;5076757;28;45556;-78
2022/08/13 00:09:27;;;;;;;;;6.00;5.25;;;;;29.85;21.16;100535.16;5075281;27;46279;-77
2022/08/13 00:18:09;;;;;;;;;7.00;6.00;;;;;29.72;21.18;100535.44;5074348;28;46075;-77
2022/08/13 00:20:48;;;;;;;;;9.00;7.25;;;;;29.67;20.98;100534.50;5075153;27;45982;-78
2022/08/13 00:23:15;;;;;;;;;7.00;7.00;;;;;29.60;20.96;100532.72;5074504;27;45650;-79
2022/08/13 00:25:42;;;;;;;;;7.25;6.25;;;;;29.55;21.58;100532.59;5074595;27;45588;-80
2022/08/13 00:28:07;;;;;;;;;6.50;6.00;;;;;29.51;21.42;100539.53;5074157;27;46906;-78
2022/08/13 00:30:35;;;;;;;;;6.25;6.00;;;;;29.50;21.59;100539.78;5089664;27;47283;-78
2022/08/13 00:33:04;;;;;;;;;6.00;6.00;;;;;29.47;21.37;100537.56;5073912;27;45683;-77
2022/08/13 00:35:31;;;;;;;;;6.00;4.75;;;;;29.45;21.43;100539.66;5074770;27;45800;-76
2022/08/13 00:37:57;;;;;;;;;8.00;6.00;;;;;29.40;21.07;100532.25;5074727;27;46553;-77
2022/08/13 00:40:25;;;;;;;;;5.00;5.00;;;;;29.37;21.51;100543.50;5073482;28;46423;-76
2022/08/13 00:42:51;;;;;;;;;5.75;5.75;;;;;29.30;21.66;100536.56;5075012;27;45674;-78
2022/08/13 00:45:18;;;;;;;;;5.75;5.75;;;;;29.27;21.35;100547.81;5074225;28;45633;-77
2022/08/13 00:50:27;;;;;;;;;5.00;5.00;;;;;29.17;21.27;100545.69;5074177;28;45985;-78
2022/08/13 00:52:53;;;;;;;;;5.00;5.00;;;;;29.12;21.29;100540.16;5075445;27;45753;-78
2022/08/13 00:55:20;;;;;;;;;5.00;4.25;;;;;29.10;21.86;100528.78;5073863;27;45805;-77
2022/08/13 00:57:47;;;;;;;;;6.00;6.00;;;;;29.06;21.50;100533.00;5089219;27;47381;-78
2022/08/13 01:00:17;;;;;;;;;5.00;5.00;;;;;29.02;21.98;100539.91;5089244;27;48422;-76
2022/08/13 01:02:46;;;;;;;;;6.00;6.00;;;;;29.00;22.02;100534.75;5072192;28;45644;-77
2022/08/13 01:05:12;;;;;;;;;4.50;4.50;;;;;28.98;21.79;100541.44;5073922;27;45735;-78
2022/08/13 01:07:41;;;;;;;;;7.00;5.25;;;;;28.95;21.90;100541.88;5073427;27;46551;-77
2022/08/13 01:10:11;;;;;;;;;5.75;5.75;;;;;28.96;21.74;100543.53;5073645;27;46447;-78
2022/08/13 01:12:39;;;;;;;;;6.50;5.75;;;;;28.93;22.39;100549.41;5073295;27;45702;-75
2022/08/13 01:15:07;;;;;;;;;6.50;5.75;;;;;28.89;22.33;100546.34;5073378;27;45537;-78
2022/08/13 01:17:35;;;;;;;;;4.25;4.00;;;;;28.85;22.20;100545.16;5073306;27;47934;-77
2022/08/13 01:20:02;;;;;;;;;5.50;5.50;;;;;28.83;21.95;100547.25;5073298;27;47256;-75
2022/08/13 01:22:29;;;;;;;;;5.75;5.75;;;;;28.81;22.24;100543.16;5074599;27;45715;-75
2022/08/13 01:24:55;;;;;;;;;5.00;4.50;;;;;28.77;22.37;100542.78;5077082;27;45485;-77
2022/08/13 01:27:25;;;;;;;;;5.00;5.00;;;;;28.72;22.60;100548.84;5076594;27;47365;-77
2022/08/13 01:29:51;;;;;;;;;5.75;5.50;;;;;28.68;22.34;100544.94;5076568;27;46149;-78
2022/08/13 01:32:20;;;;;;;;;7.50;6.50;;;;;28.66;22.54;100540.84;5076973;27;45765;-77
2022/08/13 01:34:47;;;;;;;;;4.00;4.00;;;;;28.63;22.62;100533.19;5076852;27;45723;-77
2022/08/13 01:37:17;;;;;;;;;5.00;5.00;;;;;28.60;22.63;100536.38;5076861;27;45679;-75
2022/08/13 01:39:44;;;;;;;;;5.00;5.00;;;;;28.58;22.28;100538.47;5076233;27;46341;-76
2022/08/13 01:42:20;;;;;;;;;5.00;4.00;;;;;28.59;22.67;100543.63;5076703;28;45727;-76
2022/08/13 01:50:51;;;;;;;;;6.00;6.00;;;;;28.55;22.52;100544.31;5076352;28;45782;-79
2022/08/13 01:53:18;;;;;;;;;6.00;6.00;;;;;28.54;23.26;100543.50;5076740;27;45727;-78
2022/08/13 01:55:49;;;;;;;;;5.50;5.50;;;;;28.54;22.89;100539.97;5076701;27;45548;-75
2022/08/13 01:58:25;;;;;;;;;4.25;4.25;;;;;28.53;22.82;100543.72;5076387;27;45577;-78
2022/08/13 02:00:57;;;;;;;;;6.00;5.00;;;;;28.49;22.97;100540.66;5076077;27;48024;-77
2022/08/13 02:03:23;;;;;;;;;5.50;5.50;;;;;28.49;23.11;100540.66;5076447;28;45815;-75
2022/08/13 02:05:49;;;;;;;;;5.75;5.00;;;;;28.47;22.69;100548.13;5076546;27;45769;-79
2022/08/13 02:08:18;;;;;;;;;7.00;6.00;;;;;28.45;22.95;100542.13;5076404;27;46646;-78
2022/08/13 02:10:45;;;;;;;;;6.00;6.00;;;;;28.46;23.10;100549.19;5076483;27;46363;-77
2022/08/13 02:13:13;;;;;;;;;7.00;6.00;;;;;28.42;23.01;100542.59;5076360;27;45529;-79
2022/08/13 02:15:40;;;;;;;;;3.75;3.75;;;;;28.42;23.36;100553.41;5074945;28;45979;-79
2022/08/13 02:18:07;;;;;;;;;6.00;6.00;;;;;28.42;23.30;100556.09;5076290;27;45662;-79
2022/08/13 02:20:35;;;;;;;;;6.50;6.50;;;;;28.39;23.03;100556.56;5076057;27;46203;-80
2022/08/13 02:23:02;;;;;;;;;4.25;4.25;;;;;28.35;23.75;100550.78;5074695;28;45682;-78
2022/08/13 02:25:29;;;;;;;;;6.00;6.00;;;;;28.36;23.19;100554.28;5076309;27;45607;-78
2022/08/13 02:27:55;;;;;;;;;7.25;6.50;;;;;28.32;23.12;100553.94;5075856;27;45669;-78
2022/08/13 02:30:22;;;;;;;;;6.25;5.25;;;;;28.32;23.47;100545.84;5076043;27;45668;-78
2022/08/13 02:32:49;;;;;;;;;5.00;5.00;;;;;28.31;23.78;100546.06;5075605;27;45551;-79
2022/08/13 02:35:17;;;;;;;;;5.00;5.00;;;;;28.30;23.40;100557.91;5076183;27;45732;-77
2022/08/13 02:37:44;;;;;;;;;5.00;5.00;;;;;28.27;23.03;100547.56;5075961;28;46443;-78
2022/08/13 02:41:38;;;;;;;;;4.75;4.75;;;;;28.24;23.03;100551.53;5074404;28;47644;-79
2022/08/13 02:42:58;;;;;;;;;4.25;4.25;;;;;28.23;23.46;100549.88;5075751;27;45555;-79
2022/08/13 02:45:25;;;;;;;;;7.00;6.00;;;;;28.20;23.11;100550.34;5076031;27;45525;-78
2022/08/13 02:47:51;;;;;;;;;7.00;5.33;;;;;28.15;23.40;100546.69;5075699;27;45811;-78
2022/08/13 02:50:20;;;;;;;;;5.75;5.00;;;;;28.19;23.82;100550.56;5075857;27;45912;-78
2022/08/13 02:52:51;;;;;;;;;5.00;5.00;;;;;28.16;23.14;100548.34;5075965;27;45600;-77
2022/08/13 02:55:20;;;;;;;;;6.00;6.00;;;;;28.15;23.74;100544.81;5076730;27;45594;-78
2022/08/13 03:02:15;;;;;;;;;6.75;5.25;;;;;28.10;24.19;100552.72;5078911;28;45662;-78
2022/08/13 03:04:45;;;;;;;;;5.00;5.00;;;;;28.08;24.25;100556.66;5077707;28;46095;-78
2022/08/13 03:07:10;;;;;;;;;7.00;6.25;;;;;28.06;23.38;100556.09;5076452;28;45558;-77
2022/08/13 03:09:36;;;;;;;;;5.75;5.75;;;;;28.04;23.68;100550.09;5075669;27;46564;-77
2022/08/13 03:12:04;;;;;;;;;7.00;7.00;;;;;28.01;24.00;100543.28;5075398;28;46468;-76
2022/08/13 03:17:51;;;;;;;;;7.00;6.75;;;;;27.98;23.58;100547.25;5075818;28;45587;-78
2022/08/13 03:20:16;;;;;;;;;5.00;5.00;;;;;27.97;23.55;100542.06;5073687;28;46734;-78
2022/08/13 03:22:58;;;;;;;;;5.25;5.25;;;;;27.94;23.67;100543.38;5075332;28;45667;-78
2022/08/13 03:25:26;;;;;;;;;5.25;5.25;;;;;27.90;23.46;100536.78;5090787;27;45701;-78
2022/08/13 03:27:53;;;;;;;;;4.25;4.00;;;;;27.90;24.14;100544.88;5075361;27;46029;-79
2022/08/13 03:33:40;;;;;;;;;5.75;5.50;;;;;27.80;23.78;100531.06;5074892;28;45993;-78
2022/08/13 03:36:07;;;;;;;;;5.00;5.00;;;;;27.80;24.12;100543.75;5073519;28;45867;-78
2022/08/13 03:38:33;;;;;;;;;6.75;5.25;;;;;27.78;24.05;100535.03;5075298;27;45835;-78
2022/08/13 03:41:01;;;;;;;;;4.25;4.25;;;;;27.73;24.20;100535.72;5075091;27;45635;-75
2022/08/13 03:43:27;;;;;;;;;6.00;6.00;;;;;27.72;23.72;100539.44;5074660;27;46622;-76
2022/08/13 03:45:57;;;;;;;;;5.00;5.00;;;;;27.71;24.03;100537.81;5073869;28;45593;-76
2022/08/13 03:48:24;;;;;;;;;4.00;4.00;;;;;27.65;23.96;100543.25;5073354;28;45598;-77
2022/08/13 03:50:50;;;;;;;;;5.00;5.00;;;;;27.64;24.10;100539.72;5074607;27;45580;-78
2022/08/13 03:53:17;;;;;;;;;5.50;5.00;;;;;27.63;24.07;100542.66;5074735;27;46253;-78
2022/08/13 03:55:43;;;;;;;;;6.25;5.25;;;;;27.57;24.32;100546.25;5074690;27;45729;-78
2022/08/13 03:58:10;;;;;;;;;6.00;6.00;;;;;27.52;24.54;100542.34;5074789;27;45569;-78
2022/08/13 04:00:47;;;;;;;;;6.00;5.00;;;;;27.49;24.24;100542.75;5072822;28;48776;-76
2022/08/13 04:03:19;;;;;;;;;5.00;5.00;;;;;27.46;24.90;100547.75;5074455;28;45619;-77
2022/08/13 04:05:45;;;;;;;;;5.50;5.50;;;;;27.40;24.43;100540.56;5074627;27;45649;-76
2022/08/13 04:08:10;;;;;;;;;5.00;5.00;;;;;27.39;24.62;100547.81;5074404;27;45941;-78
2022/08/13 04:10:37;;;;;;;;;6.00;6.00;;;;;27.34;24.31;100536.88;5074364;27;46404;-79
2022/08/13 04:13:03;;;;;;;;;5.00;5.00;;;;;27.32;24.82;100540.81;5074521;27;46388;-77
2022/08/13 04:18:51;;;;;;;;;5.00;5.00;;;;;27.26;24.90;100541.72;5074299;28;45745;-78
2022/08/13 04:21:18;;;;;;;;;5.00;4.50;;;;;27.22;24.77;100540.50;5072783;28;48850;-78
2022/08/13 04:23:46;;;;;;;;;6.00;6.00;;;;;27.17;25.27;100543.84;5074378;28;45556;-75
2022/08/13 04:26:14;;;;;;;;;5.50;5.00;;;;;27.14;24.64;100542.44;5074388;28;45532;-78
2022/08/13 04:28:41;;;;;;;;;6.00;5.50;;;;;27.10;25.00;100545.75;5074616;27;45747;-78
2022/08/13 04:31:10;;;;;;;;;5.50;4.75;;;;;27.06;24.82;100552.63;5073820;27;46648;-78
2022/08/13 04:33:36;;;;;;;;;4.25;4.00;;;;;27.01;24.95;100542.50;5074026;28;47437;-77
2022/08/13 04:36:02;;;;;;;;;6.00;6.00;;;;;26.99;24.84;100544.59;5074194;27;45449;-79
2022/08/13 04:38:27;;;;;;;;;4.75;4.50;;;;;26.96;25.34;100539.66;5074423;27;45496;-78
2022/08/13 04:40:53;;;;;;;;;4.75;4.75;;;;;26.93;25.41;100544.66;5073975;27;46694;-77
2022/08/13 04:49:43;;;;;;;;;5.75;5.00;;;;;26.80;25.59;100536.63;5073932;28;45583;-76
2022/08/13 04:52:09;;;;;;;;;5.00;5.00;;;;;26.78;25.24;100533.31;5072500;28;47766;-78
2022/08/13 04:54:34;;;;;;;;;5.00;5.00;;;;;26.78;25.38;100542.22;5073569;27;47352;-78
2022/08/13 04:56:59;;;;;;;;;5.00;4.50;;;;;26.76;25.49;100538.94;5076095;27;46124;-77
2022/08/13 04:59:25;;;;;;;;;4.75;4.75;;;;;26.75;25.71;100542.66;5077758;27;45794;-77
2022/08/13 05:01:50;;;;;;;;;4.75;4.75;;;;;26.74;25.74;100538.31;5077430;27;45694;-78
2022/08/13 05:04:17;;;;;;;;;5.00;5.00;;;;;26.73;25.63;100537.50;5076954;27;45427;-78
2022/08/13 05:06:43;;;;;;;;;5.00;5.00;;;;;26.73;25.67;100531.28;5077554;27;45892;-78
2022/08/13 05:09:08;;;;;;;;;6.00;6.00;;;;;26.73;25.88;100542.88;5075812;28;45572;-78
2022/08/13 05:11:34;;;;;;;;;4.50;4.00;;;;;26.76;25.77;100544.31;5077514;27;46486;-78
2022/08/13 05:13:59;;;;;;;;;6.75;6.00;;;;;26.75;25.84;100545.34;5081480;27;46456;-75
2022/08/13 05:16:25;;;;;;;;;7.00;6.50;;;;;26.72;25.75;100538.53;5083711;27;45630;-75
2022/08/13 05:18:54;;;;;;;;;4.25;4.00;;;;;26.71;25.99;100538.75;5084109;27;45616;-75
2022/08/13 05:21:22;;;;;;;;;4.00;3.75;;;;;26.71;26.22;100552.19;5080676;28;45618;-77
2022/08/13 05:23:55;;;;;;;;;5.75;5.75;;;;;26.69;25.82;100540.84;5076628;27;45591;-78
2022/08/13 05:26:23;;;;;;;;;7.25;6.75;;;;;26.66;26.31;100550.16;5077241;27;45706;-74
2022/08/13 05:28:50;;;;;;;;;6.50;5.25;;;;;26.63;26.17;100547.88;5076749;27;45635;-74
2022/08/13 05:31:17;;;;;;;;;6.00;5.00;;;;;26.66;26.00;100555.53;5075263;28;48642;-74
2022/08/13 05:33:42;;;;;;;;;6.25;6.25;;;;;26.67;26.38;100550.97;5076622;27;46159;-73
2022/08/13 05:36:09;;;;;;;;;7.25;7.00;;;;;26.66;26.34;100547.47;5076903;27;45651;-74
2022/08/13 05:38:37;;;;;;;;;7.00;7.00;;;;;26.68;26.48;100549.94;5076928;27;45539;-75
2022/08/13 05:41:07;;;;;;;;;5.00;5.00;;;;;26.69;26.13;100548.91;5076752;27;46644;-73
2022/08/13 05:43:36;;;;;;;;;5.00;5.00;;;;;26.68;26.57;100548.06;5076324;27;46544;-74
2022/08/13 05:49:23;;;;;;;;;5.00;5.00;;;;;26.70;26.21;100554.06;5076327;28;45501;-74
2022/08/13 05:51:49;;;;;;;;;4.50;4.25;;;;;26.71;26.23;100561.09;5076598;27;46433;-74
2022/08/13 05:54:16;;;;;;;;;7.00;6.00;;;;;26.73;26.41;100561.69;5076380;27;45697;-74
2022/08/13 05:56:41;;;;;;;;;5.00;4.75;;;;;26.79;26.02;100553.78;5109162;27;45735;-74
2022/08/13 06:04:40;;;;;;;;;5.50;5.50;;;;;26.87;26.51;100564.31;5053753;28;45834;-73
2022/08/13 06:07:09;;;;;;;;;5.00;4.50;;;;;26.89;26.58;100564.94;5053582;28;45779;-73
2022/08/13 06:09:35;;;;;;;;;5.00;5.00;;;;;26.92;26.43;100564.50;5053140;28;45880;-73
2022/08/13 06:12:00;;;;;;;;;5.00;4.25;;;;;26.94;26.22;100562.41;5053475;28;46668;-72
2022/08/13 06:14:26;;;;;;;;;4.50;4.50;;;;;26.94;26.29;100562.41;5053621;28;45798;-72
2022/08/13 06:16:52;;;;;;;;;6.00;6.00;;;;;26.96;26.23;100558.47;5053845;28;45692;-71
2022/08/13 06:19:21;;;;;;;;;6.75;5.50;;;;;26.96;26.37;100555.78;5053823;28;45866;-74
2022/08/13 06:21:49;;;;;;;;;6.50;5.00;;;;;26.99;26.78;100560.72;5053707;28;46817;-73
2022/08/13 06:24:14;;;;;;;;;6.75;5.50;;;;;27.00;26.62;100562.38;5053735;28;45872;-74
2022/08/13 06:26:40;;;;;;;;;7.00;6.25;;;;;27.01;26.67;100564.03;5053709;28;45675;-73
2022/08/13 06:29:07;;;;;;;;;5.00;5.00;;;;;27.01;26.39;100555.97;5053361;28;45558;-74
2022/08/13 06:31:38;;;;;;;;;5.75;5.75;;;;;27.03;26.53;100566.50;5053480;28;46779;-74
2022/08/13 06:34:08;;;;;;;;;6.00;5.25;;;;;27.03;26.51;100563.81;5053358;28;45865;-73
2022/08/13 06:36:36;;;;;;;;;5.75;5.75;;;;;27.04;26.30;100562.78;5053604;28;45801;-72
2022/08/13 06:39:05;;;;;;;;;5.75;5.00;;;;;27.03;26.64;100563.81;5064717;28;45678;-73
2022/08/13 06:41:32;;;;;;;;;6.00;5.00;;;;;27.05;26.88;100570.63;5075859;27;45949;-72
2022/08/13 06:43:58;;;;;;;;;5.25;5.25;;;;;27.05;26.53;100567.94;5075587;28;46055;-74
2022/08/13 06:46:26;;;;;;;;;6.00;5.75;;;;;27.03;27.16;100566.50;5075837;28;45765;-73
2022/08/13 06:48:52;;;;;;;;;7.25;7.00;;;;;27.05;26.92;100569.78;5075510;27;45676;-74
2022/08/13 06:51:19;;;;;;;;;5.50;5.00;;;;;27.03;26.65;100564.66;5108696;27;45763;-73
2022/08/13 06:53:45;;;;;;;;;4.25;4.25;;;;;27.06;26.80;100564.19;5075426;27;46258;-74
2022/08/13 06:56:14;;;;;;;;;6.75;5.50;;;;;27.09;26.70;100565.66;5075674;27;45747;-75
2022/08/13 06:58:42;;;;;;;;;5.00;5.00;;;;;27.08;26.76;100554.06;5075722;27;45601;-74
2022/08/13 07:04:29;;;;;;;;;6.00;5.00;;;;;27.16;27.22;100579.84;5066073;28;45742;-73
2022/08/13 07:06:56;;;;;;;;;6.00;5.50;;;;;27.19;26.73;100571.38;5075108;27;45576;-74
2022/08/13 07:09:22;;;;;;;;;5.00;5.00;;;;;27.21;26.74;100581.91;5075287;27;45609;-74
2022/08/13 07:11:47;;;;;;;;;7.00;7.00;;;;;27.22;26.67;100580.84;5075312;27;45678;-74
2022/08/13 07:14:14;;;;;;;;;6.00;5.75;;;;;27.21;26.99;100579.22;5073663;28;47199;-75
2022/08/13 07:16:42;;;;;;;;;5.00;5.00;;;;;27.24;27.09;100576.09;5073750;28;45627;-73
2022/08/13 07:19:10;;;;;;;;;5.00;5.00;;;;;27.25;26.66;100575.88;5075070;27;45463;-74
2022/08/13 07:21:36;;;;;;;;;5.00;5.00;;;;;27.26;27.22;100566.72;5075048;28;46408;-74
2022/08/13 07:24:03;;;;;;;;;7.00;6.00;;;;;27.28;27.09;100572.72;5075039;28;45691;-75
2022/08/13 07:26:31;;;;;;;;;6.00;5.00;;;;;27.30;27.08;100578.72;5075089;28;45554;-73
2022/08/13 07:28:57;;;;;;;;;5.50;5.50;;;;;27.32;26.98;100573.13;5075126;27;45722;-74
2022/08/13 07:34:44;;;;;;;;;6.25;6.00;;;;;27.35;27.47;100575.38;5074765;28;45935;-74
2022/08/13 07:37:17;;;;;;;;;6.50;6.00;;;;;27.37;27.50;100578.69;5075028;27;45642;-74
2022/08/13 07:39:44;;;;;;;;;5.00;5.00;;;;;27.40;26.96;100595.22;5075172;27;45584;-73
2022/08/13 07:42:10;;;;;;;;;5.75;5.00;;;;;27.42;26.85;100587.72;5074805;27;46466;-73
2022/08/13 07:44:36;;;;;;;;;5.25;5.00;;;;;27.47;27.03;100589.78;5074323;27;47658;-74
2022/08/13 07:47:01;;;;;;;;;4.50;4.50;;;;;27.47;27.01;100587.09;5074988;27;45736;-75
2022/08/13 07:49:28;;;;;;;;;7.00;5.75;;;;;27.51;27.04;100591.84;5074999;27;45841;-75
2022/08/13 07:51:55;;;;;;;;;5.00;5.00;;;;;27.53;27.45;100591.63;5074360;28;46549;-73
2022/08/13 07:54:21;;;;;;;;;5.00;5.00;;;;;27.54;27.26;100591.38;5074354;27;45869;-72
2022/08/13 07:56:49;;;;;;;;;5.00;5.00;;;;;27.56;27.01;100585.78;5074329;27;45556;-72
2022/08/13 07:59:17;;;;;;;;;4.75;4.50;;;;;27.57;27.11;100589.31;5074472;27;45736;-72
2022/08/13 08:05:12;;;;;;;;;5.25;5.00;;;;;27.60;26.82;100588.84;5068443;28;45683;-72
2022/08/13 08:07:39;;;;;;;;;4.00;4.00;;;;;27.62;27.17;100592.16;5074296;28;45664;-73
2022/08/13 08:10:06;;;;;;;;;7.00;7.00;;;;;27.65;27.58;100589.00;5074296;27;45575;-73
2022/08/13 08:12:37;;;;;;;;;6.00;5.50;;;;;27.66;26.98;100580.72;5074390;28;45899;-73
2022/08/13 08:15:07;;;;;;;;;5.00;4.25;;;;;27.70;26.96;100590.00;5074201;28;45956;-74
2022/08/13 08:17:33;;;;;;;;;5.25;5.00;;;;;27.75;27.05;100592.03;5074298;27;45744;-74
2022/08/13 08:19:59;;;;;;;;;5.00;5.00;;;;;27.76;26.55;100591.81;5090044;27;45630;-73
2022/08/13 08:22:25;;;;;;;;;5.00;5.00;;;;;27.79;26.61;100590.56;5074298;27;46428;-73
2022/08/13 08:24:50;;;;;;;;;5.00;5.00;;;;;27.81;26.94;100586.59;5074285;27;45937;-75
2022/08/13 08:27:19;;;;;;;;;5.00;5.00;;;;;27.84;27.25;100590.72;5074092;27;46122;-74
2022/08/13 08:29:46;;;;;;;;;4.50;4.50;;;;;27.87;27.07;100587.56;5074187;27;45560;-73
2022/08/13 08:32:14;;;;;;;;;5.50;4.75;;;;;27.91;27.03;100591.44;5076691;27;45891;-73
2022/08/13 08:34:46;;;;;;;;;5.00;5.00;;;;;27.93;26.93;100595.59;5077726;27;45920;-72
2022/08/13 08:43:16;;;;;;;;;5.00;5.00;;;;;28.03;26.96;100589.69;5034983;28;45743;-74
2022/08/13 08:45:42;;;;;;;;;4.25;4.25;;;;;28.08;26.52;100595.22;5034942;28;46569;-74
2022/08/13 08:48:07;;;;;;;;;4.25;4.25;;;;;28.12;26.81;100593.78;5053927;28;45969;-74
2022/08/13 08:50:33;;;;;;;;;4.25;4.25;;;;;28.17;26.69;100603.88;5077582;28;45716;-74
2022/08/13 08:55:44;;;;;;;;;4.50;4.25;;;;;28.27;26.14;100596.91;5077246;28;45881;-72
2022/08/13 08:58:11;;;;;;;;;4.00;3.50;;;;;28.30;25.88;100596.44;5075927;27;45662;-73
2022/08/13 09:00:39;;;;;;;;;3.50;3.50;;;;;28.36;26.01;100600.13;5077288;28;45426;-73
2022/08/13 09:03:05;;;;;;;;;4.25;4.25;;;;;28.42;26.51;100598.41;5077102;27;47349;-73
2022/08/13 09:05:31;;;;;;;;;3.00;3.00;;;;;28.47;26.08;100595.84;5076906;27;45849;-72
2022/08/13 09:08:00;;;;;;;;;3.25;3.25;;;;;28.52;26.46;100599.50;5077322;27;45616;-73
2022/08/13 09:10:25;;;;;;;;;3.75;3.75;;;;;28.56;25.88;100599.88;5092742;27;45580;-74
2022/08/13 09:12:50;;;;;;;;;4.50;4.00;;;;;28.60;25.96;100593.00;5077280;27;46588;-73
2022/08/13 09:15:18;;;;;;;;;3.75;3.75;;;;;28.67;25.25;100596.41;5075523;28;48110;-74
2022/08/13 09:17:45;;;;;;;;;3.75;3.75;;;;;28.71;25.67;100586.84;5077346;27;45711;-74
2022/08/13 09:20:18;;;;;;;;;4.00;4.00;;;;;28.75;25.91;100590.75;5076905;27;45657;-74
2022/08/13 09:22:46;;;;;;;;;4.75;4.50;;;;;28.82;25.32;100582.56;5077140;27;45907;-72
2022/08/13 09:25:14;;;;;;;;;3.75;3.75;;;;;28.87;25.09;100590.78;5076854;27;46169;-74
2022/08/13 09:27:43;;;;;;;;;4.50;4.50;;;;;28.88;25.50;100581.66;5077323;27;45664;-78
2022/08/13 09:30:10;;;;;;;;;4.00;4.00;;;;;28.92;25.26;100588.22;5077528;27;45628;-77
2022/08/13 09:32:36;;;;;;;;;4.25;4.00;;;;;28.96;25.20;100575.91;5076862;27;47020;-79
2022/08/13 09:35:05;;;;;;;;;4.25;4.00;;;;;29.00;24.92;100579.78;5077187;27;45555;-77
2022/08/13 09:37:32;;;;;;;;;4.75;4.25;;;;;29.05;24.68;100588.84;5077276;27;45628;-77
2022/08/13 09:40:06;;;;;;;;;3.50;3.00;;;;;29.08;25.06;100596.50;5077624;28;45860;-78
2022/08/13 09:42:57;;;;;;;;;4.00;4.00;;;;;29.10;24.96;100591.66;5080514;27;45486;-79
2022/08/13 09:45:25;;;;;;;;;4.75;4.25;;;;;29.14;24.61;100595.56;5086606;27;47284;-74
2022/08/13 09:47:51;;;;;;;;;4.25;3.75;;;;;29.20;25.09;100589.22;5101040;27;45594;-74
2022/08/13 09:50:16;;;;;;;;;3.75;3.75;;;;;29.25;24.88;100591.25;5082272;27;45533;-74
2022/08/13 09:52:42;;;;;;;;;3.00;3.00;;;;;29.27;24.62;100586.44;5079172;27;46349;-74
2022/08/13 09:55:08;;;;;;;;;4.00;4.00;;;;;29.33;24.13;100593.63;5077602;27;46131;-75
2022/08/13 09:57:59;;;;;;;;;3.75;3.75;;;;;29.39;24.46;100589.19;5077255;27;45761;-76
2022/08/13 10:00:27;;;;;;;;;4.75;4.00;;;;;29.44;24.83;100586.59;5076929;27;45907;-77
2022/08/13 10:02:59;;;;;;;;;5.25;4.25;;;;;29.48;23.95;100585.06;5076823;28;46622;-75
2022/08/13 10:05:25;;;;;;;;;3.00;3.00;;;;;29.52;24.15;100588.97;5076340;27;45986;-77
2022/08/13 10:07:52;;;;;;;;;3.00;3.00;;;;;29.54;23.87;100579.56;5076928;27;45495;-78
2022/08/13 10:10:19;;;;;;;;;4.00;4.00;;;;;29.58;24.02;100579.94;5075110;28;45578;-76
2022/08/13 10:12:45;;;;;;;;;3.00;3.00;;;;;29.63;23.80;100581.94;5109534;27;46635;-76
2022/08/13 10:15:12;;;;;;;;;3.25;3.00;;;;;29.69;23.27;100576.41;5074679;28;45644;-74
2022/08/13 10:17:49;;;;;;;;;3.00;3.00;;;;;29.75;23.37;100570.06;5076575;27;45667;-76
2022/08/13 10:20:23;;;;;;;;;3.00;2.50;;;;;29.79;23.03;100565.03;5076677;28;45557;-76
2022/08/13 10:22:49;;;;;;;;;4.00;4.00;;;;;29.83;22.84;100564.31;5076232;27;45754;-76
2022/08/13 10:25:17;;;;;;;;;3.25;3.00;;;;;29.88;22.93;100567.13;5076261;28;46411;-78
2022/08/13 10:27:44;;;;;;;;;3.00;3.00;;;;;29.94;22.74;100568.09;5076571;27;45540;-79
2022/08/13 10:30:10;;;;;;;;;4.50;4.00;;;;;29.98;22.86;100561.97;5076627;28;45739;-78
2022/08/13 10:32:35;;;;;;;;;3.00;3.00;;;;;30.03;22.86;100558.56;5075987;28;45577;-76
2022/08/13 10:35:02;;;;;;;;;4.00;4.00;;;;;30.08;22.72;100563.25;5076091;27;46298;-75
2022/08/13 10:37:30;;;;;;;;;5.50;4.00;;;;;30.13;22.50;100564.16;5075883;27;45617;-79
2022/08/13 10:39:57;;;;;;;;;5.50;4.75;;;;;30.17;22.33;100562.66;5076097;27;45501;-75
2022/08/13 10:42:23;;;;;;;;;3.00;3.00;;;;;30.18;22.38;100544.53;5076094;27;45693;-75
2022/08/13 10:44:51;;;;;;;;;4.00;4.00;;;;;30.20;22.46;100553.22;5075933;27;45704;-76
2022/08/13 10:50:40;;;;;;;;;5.00;5.00;;;;;30.26;22.38;100545.00;5076189;28;45530;-77
2022/08/13 10:53:06;;;;;;;;;2.25;2.25;;;;;30.29;22.13;100547.19;5075764;27;45761;-78
2022/08/13 10:55:34;;;;;;;;;4.75;4.75;;;;;30.33;22.13;100553.78;5075554;27;45857;-75
2022/08/13 10:57:59;;;;;;;;;5.00;3.50;;;;;30.33;21.95;100539.44;5076134;27;45590;-75
2022/08/13 11:00:25;;;;;;;;;4.00;3.25;;;;;30.38;22.12;100539.56;5075531;27;45513;-75
2022/08/13 11:02:50;;;;;;;;;4.50;4.00;;;;;30.39;22.16;100542.00;5075644;27;46359;-77
2022/08/13 11:05:22;;;;;;;;;5.00;4.00;;;;;30.43;22.26;100542.34;5075179;27;46519;-78
2022/08/13 11:07:47;;;;;;;;;4.00;4.00;;;;;30.47;21.81;100542.69;5075839;27;45746;-77
2022/08/13 11:10:13;;;;;;;;;3.00;3.00;;;;;30.48;22.26;100534.38;5074253;28;45855;-77
2022/08/13 11:12:50;;;;;;;;;4.00;4.00;;;;;30.52;22.13;100537.41;5075787;27;46045;-78
2022/08/13 11:21:40;;;;;;;;;3.75;3.75;;;;;30.69;21.83;100543.69;5075567;28;45659;-77
2022/08/13 11:24:06;;;;;;;;;4.25;4.25;;;;;30.71;21.79;100534.28;5075475;27;45921;-79
2022/08/13 11:26:31;;;;;;;;;3.50;3.50;;;;;30.75;21.49;100529.19;5075435;27;46675;-76
2022/08/13 11:28:57;;;;;;;;;5.75;3.75;;;;;30.76;21.44;100525.41;5075243;27;45725;-78
2022/08/13 11:31:23;;;;;;;;;3.75;3.75;;;;;30.80;21.50;100532.81;5075549;27;45599;-76
2022/08/13 11:33:49;;;;;;;;;4.00;3.00;;;;;30.81;21.97;100526.34;5073492;28;47450;-78
2022/08/13 11:36:15;;;;;;;;;2.75;2.75;;;;;30.89;21.10;100532.38;5075196;28;46542;-75
2022/08/13 11:38:41;;;;;;;;;4.00;4.00;;;;;30.91;21.21;100527.56;5075013;28;45553;-77
2022/08/13 11:41:07;;;;;;;;;4.00;3.25;;;;;30.94;21.19;100527.88;5075210;28;45708;-77
2022/08/13 11:43:33;;;;;;;;;3.75;3.75;;;;;31.01;21.48;100519.63;5074755;28;45529;-79
2022/08/13 11:45:59;;;;;;;;;3.50;3.50;;;;;31.03;20.84;100522.94;5074919;28;45755;-77
2022/08/13 11:48:24;;;;;;;;;3.00;3.00;;;;;31.06;20.88;100508.91;5074865;27;45655;-78
2022/08/13 11:50:51;;;;;;;;;3.50;3.00;;;;;31.07;21.00;100522.19;5075081;27;45618;-77
2022/08/13 11:53:17;;;;;;;;;3.50;3.25;;;;;31.09;20.56;100509.25;5074620;27;46401;-79
2022/08/13 11:55:43;;;;;;;;;3.00;3.00;;;;;31.14;20.84;100516.63;5074749;27;46347;-77
2022/08/13 11:58:09;;;;;;;;;2.75;2.75;;;;;31.17;20.50;100510.72;5074893;27;45605;-74
2022/08/13 12:00:39;;;;;;;;;3.00;3.00;;;;;31.19;20.58;100506.69;5075653;27;45727;-75
2022/08/13 12:03:06;;;;;;;;;3.50;3.00;;;;;31.21;20.76;100507.25;5079435;27;45691;-74
2022/08/13 12:05:32;;;;;;;;;3.25;2.75;;;;;31.24;19.71;100506.78;5079595;27;46227;-76
2022/08/13 12:07:58;;;;;;;;;2.75;2.75;;;;;31.24;19.71;100493.25;5083271;28;45600;-73
2022/08/13 12:10:23;;;;;;;;;3.75;3.75;;;;;31.26;20.38;100496.50;5078243;27;45710;-76
2022/08/13 12:12:49;;;;;;;;;2.75;2.75;;;;;31.30;20.06;100486.00;5075025;27;46446;-76
2022/08/13 12:15:15;;;;;;;;;3.25;3.00;;;;;31.32;19.57;100488.44;5073301;28;48200;-77
2022/08/13 12:21:03;;;;;;;;;2.75;2.75;;;;;31.32;19.74;100491.97;5074585;28;45666;-77
2022/08/13 12:23:28;;;;;;;;;3.00;2.00;;;;;31.36;20.15;100498.56;5074638;27;46776;-76
2022/08/13 12:25:53;;;;;;;;;2.00;2.00;;;;;31.38;20.09;100485.56;5073353;28;47034;-78
2022/08/13 12:28:22;;;;;;;;;2.00;2.00;;;;;31.39;20.13;100476.38;5074783;27;45630;-77
2022/08/13 12:31:09;;;;;;;;;2.00;2.00;;;;;31.42;19.80;100477.78;5073249;28;45887;-76
2022/08/13 12:33:36;;;;;;;;;2.50;2.50;;;;;31.43;19.63;100484.81;5074017;27;45661;-75
2022/08/13 12:36:02;;;;;;;;;2.00;2.00;;;;;31.44;19.53;100470.22;5074570;28;45874;-77
2022/08/13 12:38:28;;;;;;;;;1.25;1.25;;;;;31.45;19.38;100469.97;5073934;27;45700;-75
2022/08/13 12:40:54;;;;;;;;;2.75;2.75;;;;;31.47;19.72;100467.81;5074229;27;45550;-78
2022/08/13 12:43:20;;;;;;;;;2.75;2.75;;;;;31.49;19.70;100470.28;5074553;27;46488;-77
2022/08/13 12:45:46;;;;;;;;;2.75;2.75;;;;;31.54;19.32;100473.06;5074329;27;45530;-78